createdAt,value
2023-05-20T00:03:22.278Z,13.61
2023-05-20T00:08:24.401Z,13.55
2023-05-20T00:13:50.463Z,13.57
2023-05-20T00:18:57.439Z,13.26
2023-05-20T00:24:01.318Z,12.78
2023-05-20T00:29:23.380Z,13.29
2023-05-20T00:34:20.667Z,13.11
2023-05-20T00:39:24.364Z,13.25
2023-05-20T00:44:30.340Z,13.23
2023-05-20T00:49:27.237Z,12.51
2023-05-20T00:54:23.255Z,13.10
2023-05-20T01:09:54.662Z,12.89
2023-05-20T01:15:06.338Z,12.94
2023-05-20T01:20:02.839Z,12.73
2023-05-20T01:25:15.278Z,12.78
2023-05-20T01:35:46.779Z,12.66
2023-05-20T01:40:55.106Z,12.59
2023-05-20T01:45:50.395Z,12.47
2023-05-20T01:50:53.294Z,12.38
2023-05-20T01:55:51.451Z,12.17
2023-05-20T02:06:13.428Z,12.06
2023-05-20T02:11:11.420Z,12.07
2023-05-20T02:16:09.279Z,11.86
2023-05-20T02:26:46.633Z,11.74
2023-05-20T02:31:43.754Z,11.21
2023-05-20T02:36:43.432Z,11.64
2023-05-20T02:41:41.377Z,11.53
2023-05-20T02:46:48.593Z,11.38
2023-05-20T02:51:53.168Z,11.27
2023-05-20T02:56:51.888Z,11.15
2023-05-20T03:07:23.033Z,11.07
2023-05-20T03:12:28.825Z,11.02
2023-05-20T03:17:35.627Z,10.86
2023-05-20T03:22:33.631Z,10.84
2023-05-20T03:27:51.494Z,10.61
2023-05-20T03:32:50.341Z,10.81
2023-05-20T03:37:56.008Z,10.89
2023-05-20T03:43:05.257Z,10.94
2023-05-20T03:48:01.389Z,10.75
2023-05-20T04:09:47.008Z,11.39
2023-05-20T04:38:36.066Z,12.86
2023-05-20T04:43:50.667Z,12.81
2023-05-20T05:02:16.213Z,16.91
2023-05-20T05:07:08.307Z,17.14
2023-05-20T05:12:01.070Z,16.40
2023-05-20T05:16:55.820Z,16.50
2023-05-20T05:21:49.446Z,16.32
2023-05-20T05:26:41.711Z,16.48
2023-05-20T05:31:34.442Z,16.77
2023-05-20T05:36:26.521Z,17.09
2023-05-20T05:41:21.257Z,16.95
2023-05-20T05:46:14.732Z,17.43
2023-05-20T05:51:07.088Z,17.37
2023-05-20T05:56:00.210Z,18.38
2023-05-20T06:00:54.505Z,18.55
2023-05-20T06:05:49.722Z,18.59
2023-05-20T06:10:47.249Z,18.60
2023-05-20T06:15:44.530Z,18.72
2023-05-20T06:20:36.731Z,18.83
2023-05-20T06:25:29.131Z,18.77
2023-05-20T06:30:26.978Z,18.58
2023-05-20T06:35:19.096Z,19.16
2023-05-20T06:40:15.625Z,19.02
2023-05-20T06:45:08.685Z,19.35
2023-05-20T06:50:08.938Z,18.88
2023-05-20T06:55:02.012Z,18.55
2023-05-20T06:59:55.303Z,18.98
2023-05-20T07:04:47.901Z,19.90
2023-05-20T07:09:40.452Z,19.51
2023-05-20T07:14:36.178Z,20.93
2023-05-20T07:19:29.760Z,21.04
2023-05-20T07:24:24.369Z,22.45
2023-05-20T07:29:18.165Z,24.28
2023-05-20T07:34:10.865Z,24.64
2023-05-20T07:39:11.762Z,25.16
2023-05-20T07:44:09.103Z,25.26
2023-05-20T07:49:07.159Z,25.23
2023-05-20T07:54:01.882Z,25.25
2023-05-20T07:58:59.081Z,22.81
2023-05-20T08:03:58.614Z,23.18
2023-05-20T08:08:56.411Z,23.40
2023-05-20T08:13:54.551Z,22.16
2023-05-20T08:18:48.913Z,22.53
2023-05-20T08:23:41.663Z,21.98
2023-05-20T08:28:34.419Z,22.05
2023-05-20T08:33:29.118Z,22.88
2023-05-20T08:38:22.765Z,22.91
2023-05-20T08:43:16.910Z,23.73
2023-05-20T08:48:10.302Z,25.13
2023-05-20T08:53:03.867Z,26.30
2023-05-20T08:57:57.762Z,25.08
2023-05-20T09:02:52.334Z,25.16
2023-05-20T09:07:46.909Z,24.93
2023-05-20T09:12:42.003Z,24.90
2023-05-20T09:17:40.697Z,26.50
2023-05-20T09:22:33.184Z,25.42
2023-05-20T09:27:26.988Z,25.39
2023-05-20T09:32:26.684Z,26.19
2023-05-20T09:37:21.970Z,26.24
2023-05-20T09:42:27.679Z,26.70
2023-05-20T09:47:21.748Z,26.34
2023-05-20T09:52:18.946Z,26.74
2023-05-20T09:57:15.414Z,26.00
2023-05-20T10:02:09.979Z,25.68
2023-05-20T10:07:41.395Z,25.52
2023-05-20T10:12:56.812Z,25.61
2023-05-20T10:18:27.094Z,26.39
2023-05-20T10:23:29.685Z,26.21
2023-05-20T10:28:38.830Z,25.53
2023-05-20T10:33:43.246Z,24.58
2023-05-20T10:38:35.870Z,24.65
2023-05-20T10:43:31.590Z,23.76
2023-05-20T10:48:29.206Z,24.16
2023-05-20T10:53:33.481Z,24.62
2023-05-20T10:58:27.256Z,24.57
2023-05-20T11:03:22.843Z,24.63
2023-05-20T11:08:27.631Z,24.51
2023-05-20T11:13:21.654Z,23.98
2023-05-20T11:18:18.411Z,24.17
2023-05-20T11:23:17.244Z,24.11
2023-05-20T11:28:15.308Z,24.83
2023-05-20T11:33:12.656Z,24.48
2023-05-20T11:38:09.365Z,24.85
2023-05-20T11:43:03.145Z,24.18
2023-05-20T11:48:01.176Z,24.57
2023-05-20T11:53:02.013Z,24.68
2023-05-20T11:57:57.433Z,24.91
2023-05-20T12:02:50.333Z,24.27
2023-05-20T12:07:43.106Z,23.83
2023-05-20T12:12:37.092Z,24.55
2023-05-20T12:17:30.075Z,24.96
2023-05-20T12:22:23.651Z,24.02
2023-05-20T12:27:16.755Z,23.59
2023-05-20T12:32:09.148Z,24.31
2023-05-20T12:37:02.338Z,25.05
2023-05-20T12:41:58.097Z,24.46
2023-05-20T12:46:53.420Z,23.80
2023-05-20T12:51:50.229Z,23.69
2023-05-20T12:56:42.848Z,23.78
2023-05-20T13:01:35.117Z,23.93
2023-05-20T13:06:28.322Z,22.79
2023-05-20T13:11:22.585Z,23.21
2023-05-20T13:16:16.953Z,22.65
2023-05-20T13:21:10.684Z,22.83
2023-05-20T13:26:03.587Z,22.65
2023-05-20T13:30:58.411Z,23.01
2023-05-20T13:35:52.549Z,22.75
2023-05-20T13:40:45.883Z,22.92
2023-05-20T13:45:37.916Z,22.41
2023-05-20T13:50:31.411Z,23.12
2023-05-20T13:55:34.917Z,23.09
2023-05-20T14:00:33.485Z,23.44
2023-05-20T14:05:27.636Z,23.24
2023-05-20T14:10:20.540Z,23.05
2023-05-20T14:15:13.113Z,22.80
2023-05-20T14:20:06.675Z,22.51
2023-05-20T14:25:01.752Z,22.59
2023-05-20T14:29:55.584Z,22.18
2023-05-20T14:34:51.358Z,21.95
2023-05-20T14:39:45.496Z,21.95
2023-05-20T14:44:38.457Z,21.87
2023-05-20T14:49:33.370Z,21.76
2023-05-20T14:54:27.956Z,21.37
2023-05-20T14:59:22.886Z,21.39
2023-05-20T15:04:14.990Z,21.05
2023-05-20T15:09:09.420Z,20.37
2023-05-20T15:14:02.406Z,21.34
2023-05-20T15:18:55.491Z,20.60
2023-05-20T15:23:48.486Z,21.26
2023-05-20T15:28:41.262Z,21.26
2023-05-20T15:33:33.961Z,20.92
2023-05-20T15:38:29.640Z,21.00
2023-05-20T15:43:22.936Z,20.60
2023-05-20T15:48:16.673Z,21.16
2023-05-20T15:53:09.961Z,20.87
2023-05-20T15:58:02.996Z,20.74
2023-05-20T16:02:56.518Z,20.50
2023-05-20T16:07:50.892Z,20.42
2023-05-20T16:12:43.516Z,20.26
2023-05-20T16:17:38.174Z,20.62
2023-05-20T16:22:30.644Z,20.50
2023-05-20T16:27:23.034Z,20.80
2023-05-20T16:32:16.130Z,19.94
2023-05-20T16:37:09.324Z,20.39
2023-05-20T16:42:03.034Z,19.93
2023-05-20T16:46:56.442Z,20.00
2023-05-20T16:51:48.974Z,20.41
2023-05-20T16:56:41.529Z,20.38
2023-05-20T17:01:33.975Z,20.07
2023-05-20T17:06:26.505Z,20.20
2023-05-20T17:11:19.364Z,19.61
2023-05-20T17:16:12.319Z,19.80
2023-05-20T17:21:04.464Z,19.54
2023-05-20T17:25:56.837Z,19.44
2023-05-20T17:30:49.352Z,19.56
2023-05-20T17:35:42.333Z,19.65
2023-05-20T17:40:35.303Z,19.55
2023-05-20T17:45:27.808Z,19.48
2023-05-20T17:50:20.092Z,19.03
2023-05-20T17:55:15.646Z,19.37
2023-05-20T18:00:09.514Z,19.29
2023-05-20T18:05:02.890Z,19.21
2023-05-20T18:09:55.404Z,18.96
2023-05-20T18:14:53.955Z,18.80
2023-05-20T18:19:46.066Z,18.65
2023-05-20T18:24:38.625Z,18.73
2023-05-20T18:29:32.229Z,18.56
2023-05-20T18:34:24.387Z,18.44
2023-05-20T18:39:21.112Z,18.06
2023-05-20T18:44:14.486Z,18.07
2023-05-20T18:49:07.789Z,17.86
2023-05-20T18:54:00.631Z,17.38
2023-05-20T18:58:52.809Z,16.76
2023-05-20T19:03:46.646Z,17.31
2023-05-20T19:08:40.807Z,16.90
2023-05-20T19:13:34.004Z,17.16
2023-05-20T19:18:28.513Z,16.38
2023-05-20T19:23:21.364Z,16.82
2023-05-20T19:28:14.593Z,16.74
2023-05-20T19:33:08.754Z,16.60
2023-05-20T19:38:05.182Z,16.48
2023-05-20T19:42:58.766Z,16.46
2023-05-20T19:47:53.289Z,16.40
2023-05-20T19:52:45.634Z,16.31
2023-05-20T19:57:38.310Z,16.12
2023-05-20T20:02:31.552Z,15.99
2023-05-20T20:07:24.111Z,15.93
2023-05-20T20:12:16.697Z,15.98
2023-05-20T20:17:15.915Z,15.99
2023-05-20T20:22:09.129Z,15.71
2023-05-20T20:27:03.543Z,15.59
2023-05-20T20:31:59.440Z,15.45
2023-05-20T20:36:53.643Z,15.55
2023-05-20T20:41:47.908Z,15.73
2023-05-20T20:46:43.701Z,15.62
2023-05-20T20:51:36.853Z,15.65
2023-05-20T20:56:39.818Z,14.82
2023-05-20T21:01:44.080Z,15.45
2023-05-20T21:06:38.428Z,15.43
2023-05-20T21:11:33.518Z,15.15
2023-05-20T21:16:27.133Z,15.12
2023-05-20T21:21:26.782Z,14.05
2023-05-20T21:26:25.496Z,15.15
2023-05-20T21:31:29.664Z,15.19
2023-05-20T21:36:22.777Z,14.64
2023-05-20T21:41:16.629Z,15.03
2023-05-20T21:46:18.190Z,14.52
2023-05-20T21:51:10.564Z,13.82
2023-05-20T21:56:06.335Z,13.88
2023-05-20T22:06:17.425Z,14.73
2023-05-20T22:11:10.607Z,13.80
2023-05-20T22:16:06.435Z,14.21
2023-05-20T22:21:12.201Z,13.65
2023-05-20T22:26:12.508Z,14.76
2023-05-20T22:31:06.694Z,14.59
2023-05-20T22:36:01.838Z,14.60
2023-05-20T22:41:03.500Z,13.82
2023-05-20T22:45:56.233Z,13.86
2023-05-20T22:50:50.155Z,13.90
2023-05-20T22:55:44.196Z,14.03
2023-05-20T23:00:39.425Z,14.02
2023-05-20T23:05:32.915Z,13.72
2023-05-20T23:10:32.274Z,14.52
2023-05-20T23:15:26.676Z,14.43
2023-05-20T23:20:24.342Z,14.35
2023-05-20T23:25:17.314Z,13.05
2023-05-20T23:30:14.800Z,13.94
2023-05-20T23:35:07.659Z,14.36
2023-05-20T23:40:01.658Z,14.31
2023-05-20T23:44:53.754Z,14.24
2023-05-20T23:49:49.521Z,13.05
2023-05-20T23:54:42.401Z,14.16
2023-05-20T23:59:36.199Z,14.09
